Miramar Beach, Florida
Current Conditions -  °F | °C
As of 7:53 AM on Tuesday 21 Oct 2014 (Local Time) from KDTS Reporting Station
Clear Clear  
Wind Chill: 64°   Ceiling: Unl
Heat Index: 64°   Visibility: 10mi
Dew Point: 55°   Wind: 5mph
Humidity: 72%   Direction: 20°NNE
Pressure: 30.03"   Gusts: NA
Location:  30.3738°N, 86.3602°W
Report Text: KDTS 211253Z AUTO 02004KT 10SM CLR 18/13 A3003 RMK AO2 SLP167 T01780128 TSNO
Loading
Personal Weather Stations






























Interactive Weather Map
Tropical Storm Tracking
New forecast layout! Learn more

10-Day Weather Forecast

Advertisements
Track Severe Weather on mobile